sensor_id;sensor_type;location;lat;lon;timestamp;pressure;altitude;pressure_sealevel;temperature;humidity
7297;BME280;40758;54.038;11.684;2022-07-10T00:02:06;101627.47;;;13.41;100.00
7297;BME280;40758;54.038;11.684;2022-07-10T00:04:39;101610.94;;;13.23;100.00
7297;BME280;40758;54.038;11.684;2022-07-10T00:07:09;101619.59;;;12.82;100.00
7297;BME280;40758;54.038;11.684;2022-07-10T00:09:41;101616.13;;;12.58;100.00
7297;BME280;40758;54.038;11.684;2022-07-10T00:12:11;101609.38;;;12.29;100.00
7297;BME280;40758;54.038;11.684;2022-07-10T00:14:40;101607.97;;;12.12;100.00
7297;BME280;40758;54.038;11.684;2022-07-10T00:17:12;101613.94;;;12.04;100.00
7297;BME280;40758;54.038;11.684;2022-07-10T00:19:42;101617.50;;;12.05;100.00
7297;BME280;40758;54.038;11.684;2022-07-10T00:22:11;101617.50;;;12.05;100.00
7297;BME280;40758;54.038;11.684;2022-07-10T00:24:42;101618.38;;;12.05;100.00
7297;BME280;40758;54.038;11.684;2022-07-10T00:27:13;101611.41;;;12.03;100.00
7297;BME280;40758;54.038;11.684;2022-07-10T00:29:43;101611.41;;;12.03;100.00
7297;BME280;40758;54.038;11.684;2022-07-10T00:32:13;101608.91;;;12.00;100.00
7297;BME280;40758;54.038;11.684;2022-07-10T00:34:43;101609.16;;;11.97;100.00
7297;BME280;40758;54.038;11.684;2022-07-10T00:37:12;101626.03;;;11.99;100.00
7297;BME280;40758;54.038;11.684;2022-07-10T00:39:42;101609.78;;;12.00;100.00
7297;BME280;40758;54.038;11.684;2022-07-10T00:42:16;101603.53;;;12.00;100.00
7297;BME280;40758;54.038;11.684;2022-07-10T00:44:46;101604.38;;;12.00;100.00
7297;BME280;40758;54.038;11.684;2022-07-10T00:47:15;101601.19;;;11.95;100.00
7297;BME280;40758;54.038;11.684;2022-07-10T00:49:47;101594.94;;;11.95;100.00
7297;BME280;40758;54.038;11.684;2022-07-10T00:52:17;101602.06;;;11.96;100.00
7297;BME280;40758;54.038;11.684;2022-07-10T00:54:50;101597.63;;;11.95;100.00
7297;BME280;40758;54.038;11.684;2022-07-10T00:57:25;101585.06;;;12.06;100.00
7297;BME280;40758;54.038;11.684;2022-07-10T00:59:55;101589.38;;;12.09;100.00
7297;BME280;40758;54.038;11.684;2022-07-10T01:02:25;101583.84;;;12.10;100.00
7297;BME280;40758;54.038;11.684;2022-07-10T01:04:57;101587.16;;;12.03;100.00
7297;BME280;40758;54.038;11.684;2022-07-10T01:07:32;101589.31;;;11.98;100.00
7297;BME280;40758;54.038;11.684;2022-07-10T01:10:01;101585.50;;;11.89;100.00
7297;BME280;40758;54.038;11.684;2022-07-10T01:12:33;101586.09;;;11.93;100.00
7297;BME280;40758;54.038;11.684;2022-07-10T01:15:04;101570.25;;;12.01;100.00
7297;BME280;40758;54.038;11.684;2022-07-10T01:17:36;101569.84;;;12.29;100.00
7297;BME280;40758;54.038;11.684;2022-07-10T01:20:06;101563.06;;;12.59;100.00
7297;BME280;40758;54.038;11.684;2022-07-10T01:22:39;101572.34;;;12.66;100.00
7297;BME280;40758;54.038;11.684;2022-07-10T01:25:08;101572.25;;;12.67;100.00
7297;BME280;40758;54.038;11.684;2022-07-10T01:27:40;101557.91;;;12.55;100.00
7297;BME280;40758;54.038;11.684;2022-07-10T01:30:10;101567.53;;;12.47;100.00
7297;BME280;40758;54.038;11.684;2022-07-10T01:32:39;101562.63;;;12.41;100.00
7297;BME280;40758;54.038;11.684;2022-07-10T01:35:11;101564.03;;;12.46;100.00
7297;BME280;40758;54.038;11.684;2022-07-10T01:37:42;101560.56;;;12.44;100.00
7297;BME280;40758;54.038;11.684;2022-07-10T01:40:12;101564.03;;;12.46;100.00
7297;BME280;40758;54.038;11.684;2022-07-10T01:42:42;101529.22;;;12.54;100.00
7297;BME280;40758;54.038;11.684;2022-07-10T01:45:15;101572.09;;;12.46;100.00
7297;BME280;40758;54.038;11.684;2022-07-10T01:47:45;101564.50;;;12.40;100.00
7297;BME280;40758;54.038;11.684;2022-07-10T01:50:14;101557.38;;;12.39;100.00
7297;BME280;40758;54.038;11.684;2022-07-10T01:52:45;101567.91;;;12.42;100.00
7297;BME280;40758;54.038;11.684;2022-07-10T01:55:15;101571.84;;;12.38;100.00
7297;BME280;40758;54.038;11.684;2022-07-10T01:57:45;101562.03;;;12.37;100.00
7297;BME280;40758;54.038;11.684;2022-07-10T02:00:16;101555.19;;;12.44;100.00
7297;BME280;40758;54.038;11.684;2022-07-10T02:02:46;101556.16;;;12.54;100.00
7297;BME280;40758;54.038;11.684;2022-07-10T02:05:35;101552.41;;;12.68;100.00
7297;BME280;40758;54.038;11.684;2022-07-10T02:08:06;101560.75;;;12.76;100.00
7297;BME280;40758;54.038;11.684;2022-07-10T02:10:38;101554.00;;;12.71;100.00
7297;BME280;40758;54.038;11.684;2022-07-10T02:13:08;101554.00;;;12.82;100.00
7297;BME280;40758;54.038;11.684;2022-07-10T02:15:38;101553.63;;;12.86;100.00
7297;BME280;40758;54.038;11.684;2022-07-10T02:18:08;101554.22;;;12.90;100.00
7297;BME280;40758;54.038;11.684;2022-07-10T02:20:38;101555.25;;;12.89;100.00
7297;BME280;40758;54.038;11.684;2022-07-10T02:23:13;101558.41;;;12.94;100.00
7297;BME280;40758;54.038;11.684;2022-07-10T02:25:46;101549.09;;;12.98;100.00
7297;BME280;40758;54.038;11.684;2022-07-10T02:28:16;101545.41;;;12.99;98.41
7297;BME280;40758;54.038;11.684;2022-07-10T02:30:47;101548.59;;;13.04;96.00
7297;BME280;40758;54.038;11.684;2022-07-10T02:33:17;101549.22;;;13.08;95.42
7297;BME280;40758;54.038;11.684;2022-07-10T02:35:46;101550.59;;;13.02;95.46
7297;BME280;40758;54.038;11.684;2022-07-10T02:38:17;101544.94;;;13.05;94.81
7297;BME280;40758;54.038;11.684;2022-07-10T02:40:49;101558.53;;;13.04;93.82
7297;BME280;40758;54.038;11.684;2022-07-10T02:43:21;101557.44;;;13.06;95.03
7297;BME280;40758;54.038;11.684;2022-07-10T02:45:50;101551.94;;;13.08;94.12
7297;BME280;40758;54.038;11.684;2022-07-10T02:48:19;101550.31;;;13.05;94.57
7297;BME280;40758;54.038;11.684;2022-07-10T02:50:48;101550.81;;;13.10;95.73
7297;BME280;40758;54.038;11.684;2022-07-10T02:53:20;101548.59;;;13.04;94.28
7297;BME280;40758;54.038;11.684;2022-07-10T02:55:50;101550.31;;;13.05;92.02
7297;BME280;40758;54.038;11.684;2022-07-10T02:58:21;101545.53;;;13.09;91.53
7297;BME280;40758;54.038;11.684;2022-07-10T03:00:51;101552.53;;;13.11;92.12
7297;BME280;40758;54.038;11.684;2022-07-10T03:03:21;101556.72;;;13.15;93.26
7297;BME280;40758;54.038;11.684;2022-07-10T03:05:50;101553.03;;;13.16;94.27
7297;BME280;40758;54.038;11.684;2022-07-10T03:08:25;101558.44;;;13.16;93.77
7297;BME280;40758;54.038;11.684;2022-07-10T03:10:54;101553.78;;;13.18;92.25
7297;BME280;40758;54.038;11.684;2022-07-10T03:13:25;101555.25;;;13.22;92.57
7297;BME280;40758;54.038;11.684;2022-07-10T03:15:55;101552.31;;;13.14;94.51
7297;BME280;40758;54.038;11.684;2022-07-10T03:18:28;101554.00;;;13.15;95.25
7297;BME280;40758;54.038;11.684;2022-07-10T03:20:57;101544.22;;;13.14;94.58
7297;BME280;40758;54.038;11.684;2022-07-10T03:23:31;101559.41;;;13.15;94.35
7297;BME280;40758;54.038;11.684;2022-07-10T03:26:00;101550.09;;;13.19;92.73
7297;BME280;40758;54.038;11.684;2022-07-10T03:28:30;101556.56;;;13.28;90.01
7297;BME280;40758;54.038;11.684;2022-07-10T03:31:00;101540.75;;;13.34;87.89
7297;BME280;40758;54.038;11.684;2022-07-10T03:33:30;101552.00;;;13.40;87.76
7297;BME280;40758;54.038;11.684;2022-07-10T03:35:59;101561.59;;;13.44;87.65
7297;BME280;40758;54.038;11.684;2022-07-10T03:38:37;101551.50;;;13.46;84.79
7297;BME280;40758;54.038;11.684;2022-07-10T03:41:08;101547.97;;;13.45;83.75
7297;BME280;40758;54.038;11.684;2022-07-10T03:43:37;101546.84;;;13.48;85.71
7297;BME280;40758;54.038;11.684;2022-07-10T03:46:06;101534.34;;;13.47;87.30
7297;BME280;40758;54.038;11.684;2022-07-10T03:48:36;101537.50;;;13.52;86.54
7297;BME280;40758;54.038;11.684;2022-07-10T03:51:08;101547.22;;;13.54;85.71
7297;BME280;40758;54.038;11.684;2022-07-10T03:53:40;101555.06;;;13.57;85.93
7297;BME280;40758;54.038;11.684;2022-07-10T03:56:13;101542.56;;;13.56;85.88
7297;BME280;40758;54.038;11.684;2022-07-10T03:59:05;101552.38;;;13.57;87.14
7297;BME280;40758;54.038;11.684;2022-07-10T04:01:39;101550.72;;;13.66;86.17
7297;BME280;40758;54.038;11.684;2022-07-10T04:04:08;101547.28;;;13.75;86.77
7297;BME280;40758;54.038;11.684;2022-07-10T04:06:38;101552.88;;;13.83;86.79
7297;BME280;40758;54.038;11.684;2022-07-10T04:09:08;101544.25;;;13.89;85.23
7297;BME280;40758;54.038;11.684;2022-07-10T04:11:39;101550.41;;;13.91;83.67
7297;BME280;40758;54.038;11.684;2022-07-10T04:14:08;101546.44;;;13.95;83.77
7297;BME280;40758;54.038;11.684;2022-07-10T04:16:40;101547.53;;;14.04;85.67
7297;BME280;40758;54.038;11.684;2022-07-10T04:19:13;101543.91;;;14.14;84.52
7297;BME280;40758;54.038;11.684;2022-07-10T04:21:43;101541.00;;;14.06;84.43
7297;BME280;40758;54.038;11.684;2022-07-10T04:24:13;101524.59;;;13.98;85.51
7297;BME280;40758;54.038;11.684;2022-07-10T04:26:43;101544.66;;;13.85;86.17
7297;BME280;40758;54.038;11.684;2022-07-10T04:29:13;101528.97;;;13.78;88.07
7297;BME280;40758;54.038;11.684;2022-07-10T04:31:42;101540.16;;;13.74;89.03
7297;BME280;40758;54.038;11.684;2022-07-10T04:34:11;101547.97;;;13.77;90.28
7297;BME280;40758;54.038;11.684;2022-07-10T04:36:41;101542.59;;;13.77;90.53
7297;BME280;40758;54.038;11.684;2022-07-10T04:39:10;101535.16;;;13.69;90.57
7297;BME280;40758;54.038;11.684;2022-07-10T04:41:41;101531.53;;;13.80;87.89
7297;BME280;40758;54.038;11.684;2022-07-10T04:44:11;101539.53;;;13.82;86.12
7297;BME280;40758;54.038;11.684;2022-07-10T04:46:40;101528.56;;;13.83;85.53
7297;BME280;40758;54.038;11.684;2022-07-10T04:49:11;101537.69;;;13.82;86.85
7297;BME280;40758;54.038;11.684;2022-07-10T04:51:40;101522.19;;;13.84;85.99
7297;BME280;40758;54.038;11.684;2022-07-10T04:54:16;101511.72;;;13.91;84.78
7297;BME280;40758;54.038;11.684;2022-07-10T04:56:46;101531.47;;;13.91;84.90
7297;BME280;40758;54.038;11.684;2022-07-10T04:59:16;101535.25;;;14.00;85.78
7297;BME280;40758;54.038;11.684;2022-07-10T05:01:45;101538.81;;;14.00;85.31
7297;BME280;40758;54.038;11.684;2022-07-10T05:04:14;101532.91;;;14.06;85.50
7297;BME280;40758;54.038;11.684;2022-07-10T05:06:43;101536.06;;;14.11;85.68
7297;BME280;40758;54.038;11.684;2022-07-10T05:09:12;101537.78;;;14.12;86.54
7297;BME280;40758;54.038;11.684;2022-07-10T05:11:41;101539.47;;;14.13;86.50
7297;BME280;40758;54.038;11.684;2022-07-10T05:14:12;101534.06;;;14.13;86.06
7297;BME280;40758;54.038;11.684;2022-07-10T05:16:41;101537.28;;;14.07;85.21
7297;BME280;40758;54.038;11.684;2022-07-10T05:19:10;101545.41;;;14.07;85.01
7297;BME280;40758;54.038;11.684;2022-07-10T05:21:40;101549.13;;;14.06;85.10
7297;BME280;40758;54.038;11.684;2022-07-10T05:24:09;101549.13;;;14.06;86.02
7297;BME280;40758;54.038;11.684;2022-07-10T05:26:38;101556.47;;;14.04;85.27
7297;BME280;40758;54.038;11.684;2022-07-10T05:29:07;101560.44;;;14.00;84.89
7297;BME280;40758;54.038;11.684;2022-07-10T05:31:40;101551.19;;;14.03;84.52
7297;BME280;40758;54.038;11.684;2022-07-10T05:34:09;101552.19;;;14.02;85.31
7297;BME280;40758;54.038;11.684;2022-07-10T05:36:38;101549.63;;;14.00;86.55
7297;BME280;40758;54.038;11.684;2022-07-10T05:39:08;101565.84;;;14.00;87.88
7297;BME280;40758;54.038;11.684;2022-07-10T05:41:37;101557.00;;;13.98;88.01
7297;BME280;40758;54.038;11.684;2022-07-10T05:44:07;101563.16;;;14.00;88.31
7297;BME280;40758;54.038;11.684;2022-07-10T05:46:37;101564.13;;;13.99;88.75
7297;BME280;40758;54.038;11.684;2022-07-10T05:49:06;101569.06;;;13.94;89.36
7297;BME280;40758;54.038;11.684;2022-07-10T05:51:35;101573.72;;;13.92;89.44
7297;BME280;40758;54.038;11.684;2022-07-10T05:54:11;101568.97;;;13.85;89.41
7297;BME280;40758;54.038;11.684;2022-07-10T05:56:41;101570.09;;;13.82;89.27
7297;BME280;40758;54.038;11.684;2022-07-10T05:59:10;101573.50;;;13.84;90.10
7297;BME280;40758;54.038;11.684;2022-07-10T06:01:40;101582.59;;;13.83;89.92
7297;BME280;40758;54.038;11.684;2022-07-10T06:04:09;101577.47;;;13.80;88.25
7297;BME280;40758;54.038;11.684;2022-07-10T06:06:38;101579.88;;;13.83;88.50
7297;BME280;40758;54.038;11.684;2022-07-10T06:09:08;101575.97;;;13.87;89.07
7297;BME280;40758;54.038;11.684;2022-07-10T06:11:37;101574.34;;;13.85;89.16
7297;BME280;40758;54.038;11.684;2022-07-10T06:14:08;101566.19;;;13.75;88.50
7297;BME280;40758;54.038;11.684;2022-07-10T06:16:37;101565.19;;;13.76;88.69
7297;BME280;40758;54.038;11.684;2022-07-10T06:19:08;101564.19;;;13.77;88.63
7297;BME280;40758;54.038;11.684;2022-07-10T06:21:38;101568.09;;;13.84;89.50
7297;BME280;40758;54.038;11.684;2022-07-10T06:24:07;101570.69;;;13.86;88.47
7297;BME280;40758;54.038;11.684;2022-07-10T06:26:36;101564.88;;;13.90;86.13
7297;BME280;40758;54.038;11.684;2022-07-10T06:29:05;101565.56;;;14.03;86.12
7297;BME280;40758;54.038;11.684;2022-07-10T06:31:34;101562.81;;;14.14;84.54
7297;BME280;40758;54.038;11.684;2022-07-10T06:34:03;101566.06;;;14.29;83.27
7297;BME280;40758;54.038;11.684;2022-07-10T06:36:34;101558.78;;;14.41;83.57
7297;BME280;40758;54.038;11.684;2022-07-10T06:39:03;101571.31;;;14.42;81.45
7297;BME280;40758;54.038;11.684;2022-07-10T06:41:33;101569.91;;;14.47;81.43
7297;BME280;40758;54.038;11.684;2022-07-10T06:44:02;101568.81;;;14.50;79.54
7297;BME280;40758;54.038;11.684;2022-07-10T06:46:32;101570.13;;;14.55;78.04
7297;BME280;40758;54.038;11.684;2022-07-10T06:49:04;101570.63;;;14.70;76.61
7297;BME280;40758;54.038;11.684;2022-07-10T06:51:34;101564.88;;;14.84;76.10
7297;BME280;40758;54.038;11.684;2022-07-10T06:54:06;101569.75;;;14.90;75.12
7297;BME280;40758;54.038;11.684;2022-07-10T06:56:35;101576.19;;;14.99;75.94
7297;BME280;40758;54.038;11.684;2022-07-10T06:59:06;101584.53;;;15.17;76.27
7297;BME280;40758;54.038;11.684;2022-07-10T07:01:36;101579.00;;;15.28;74.70
7297;BME280;40758;54.038;11.684;2022-07-10T07:04:05;101583.16;;;15.32;74.22
7297;BME280;40758;54.038;11.684;2022-07-10T07:06:36;101579.34;;;15.44;74.38
7297;BME280;40758;54.038;11.684;2022-07-10T07:09:05;101578.47;;;15.34;73.20
7297;BME280;40758;54.038;11.684;2022-07-10T07:11:35;101581.28;;;15.32;74.00
7297;BME280;40758;54.038;11.684;2022-07-10T07:14:04;101582.28;;;15.22;75.10
7297;BME280;40758;54.038;11.684;2022-07-10T07:16:33;101584.09;;;15.12;75.51
7297;BME280;40758;54.038;11.684;2022-07-10T07:19:10;101583.41;;;14.89;75.83
7297;BME280;40758;54.038;11.684;2022-07-10T07:21:45;101585.78;;;14.82;76.81
7297;BME280;40758;54.038;11.684;2022-07-10T07:24:33;101590.94;;;14.85;77.86
7297;BME280;40758;54.038;11.684;2022-07-10T07:27:03;101594.59;;;15.05;78.31
7297;BME280;40758;54.038;11.684;2022-07-10T07:29:33;101595.69;;;15.23;78.37
7297;BME280;40758;54.038;11.684;2022-07-10T07:32:03;101590.19;;;15.14;76.15
7297;BME280;40758;54.038;11.684;2022-07-10T07:34:32;101595.03;;;15.10;75.94
7297;BME280;40758;54.038;11.684;2022-07-10T07:37:03;101595.72;;;15.03;75.58
7297;BME280;40758;54.038;11.684;2022-07-10T07:39:32;101596.16;;;15.08;76.48
7297;BME280;40758;54.038;11.684;2022-07-10T07:42:02;101595.06;;;15.20;75.79
7297;BME280;40758;54.038;11.684;2022-07-10T07:44:32;101594.59;;;15.45;75.18
7297;BME280;40758;54.038;11.684;2022-07-10T07:47:02;101591.53;;;15.69;73.10
7297;BME280;40758;54.038;11.684;2022-07-10T07:49:32;101588.31;;;15.94;72.03
7297;BME280;40758;54.038;11.684;2022-07-10T07:52:03;101591.44;;;15.90;70.70
7297;BME280;40758;54.038;11.684;2022-07-10T07:54:33;101594.41;;;15.77;71.19
7297;BME280;40758;54.038;11.684;2022-07-10T07:57:03;101598.97;;;15.86;71.53
7297;BME280;40758;54.038;11.684;2022-07-10T07:59:33;101581.31;;;15.82;71.02
7297;BME280;40758;54.038;11.684;2022-07-10T08:02:03;101581.88;;;15.66;71.49
7297;BME280;40758;54.038;11.684;2022-07-10T08:04:37;101590.81;;;15.57;71.33
7297;BME280;40758;54.038;11.684;2022-07-10T08:07:08;101588.09;;;15.57;71.50
7297;BME280;40758;54.038;11.684;2022-07-10T08:09:37;101595.53;;;15.74;71.94
7297;BME280;40758;54.038;11.684;2022-07-10T08:12:07;101581.47;;;16.09;71.86
7297;BME280;40758;54.038;11.684;2022-07-10T08:14:36;101581.47;;;16.00;69.57
7297;BME280;40758;54.038;11.684;2022-07-10T08:17:05;101575.19;;;16.09;70.35
7297;BME280;40758;54.038;11.684;2022-07-10T08:19:34;101589.91;;;16.16;69.45
7297;BME280;40758;54.038;11.684;2022-07-10T08:22:08;101576.47;;;16.24;68.19
7297;BME280;40758;54.038;11.684;2022-07-10T08:24:38;101579.31;;;16.32;68.39
7297;BME280;40758;54.038;11.684;2022-07-10T08:27:08;101579.88;;;16.65;68.33
7297;BME280;40758;54.038;11.684;2022-07-10T08:29:37;101576.00;;;16.48;68.87
7297;BME280;40758;54.038;11.684;2022-07-10T08:32:07;101586.13;;;16.55;69.36
7297;BME280;40758;54.038;11.684;2022-07-10T08:34:37;101590.97;;;16.81;67.26
7297;BME280;40758;54.038;11.684;2022-07-10T08:37:07;101596.56;;;17.16;67.08
7297;BME280;40758;54.038;11.684;2022-07-10T08:39:38;101594.03;;;17.05;66.02
7297;BME280;40758;54.038;11.684;2022-07-10T08:42:10;101591.63;;;17.02;66.03
7297;BME280;40758;54.038;11.684;2022-07-10T08:44:39;101596.13;;;16.84;66.55
7297;BME280;40758;54.038;11.684;2022-07-10T08:47:09;101609.50;;;16.85;67.25
7297;BME280;40758;54.038;11.684;2022-07-10T08:49:54;101592.81;;;16.90;68.15
7297;BME280;40758;54.038;11.684;2022-07-10T08:52:31;101603.72;;;16.71;67.82
7297;BME280;40758;54.038;11.684;2022-07-10T08:55:07;101602.81;;;16.89;68.01
7297;BME280;40758;54.038;11.684;2022-07-10T08:57:40;101611.03;;;17.07;68.20
7297;BME280;40758;54.038;11.684;2022-07-10T09:00:11;101604.03;;;17.42;67.52
7297;BME280;40758;54.038;11.684;2022-07-10T09:02:42;101602.13;;;17.79;66.03
7297;BME280;40758;54.038;11.684;2022-07-10T09:05:13;101599.75;;;19.50;62.08
7297;BME280;40758;54.038;11.684;2022-07-10T09:07:42;101594.41;;;20.07;60.04
7297;BME280;40758;54.038;11.684;2022-07-10T09:10:14;101605.31;;;18.45;59.46
7297;BME280;40758;54.038;11.684;2022-07-10T09:12:52;101616.09;;;17.84;63.39
7297;BME280;40758;54.038;11.684;2022-07-10T09:15:25;101609.66;;;17.30;65.02
7297;BME280;40758;54.038;11.684;2022-07-10T09:17:56;101608.00;;;17.10;68.05
7297;BME280;40758;54.038;11.684;2022-07-10T09:20:32;101606.94;;;16.93;68.06
7297;BME280;40758;54.038;11.684;2022-07-10T09:23:15;101609.50;;;16.95;70.52
7297;BME280;40758;54.038;11.684;2022-07-10T09:25:52;101614.06;;;16.94;70.43
7297;BME280;40758;54.038;11.684;2022-07-10T09:28:26;101612.59;;;17.10;69.65
7297;BME280;40758;54.038;11.684;2022-07-10T09:31:13;101623.09;;;16.95;70.30
7297;BME280;40758;54.038;11.684;2022-07-10T09:33:50;101619.78;;;17.01;70.85
7297;BME280;40758;54.038;11.684;2022-07-10T09:36:21;101629.63;;;17.02;70.43
7297;BME280;40758;54.038;11.684;2022-07-10T09:38:53;101615.34;;;17.00;68.63
7297;BME280;40758;54.038;11.684;2022-07-10T09:41:29;101623.66;;;16.89;68.57
7297;BME280;40758;54.038;11.684;2022-07-10T09:44:02;101624.06;;;16.94;69.58
7297;BME280;40758;54.038;11.684;2022-07-10T09:46:34;101621.63;;;17.01;68.72
7297;BME280;40758;54.038;11.684;2022-07-10T09:49:10;101624.63;;;17.07;68.66
7297;BME280;40758;54.038;11.684;2022-07-10T09:51:42;101610.31;;;17.05;67.69
7297;BME280;40758;54.038;11.684;2022-07-10T09:54:19;101619.72;;;17.20;67.52
7297;BME280;40758;54.038;11.684;2022-07-10T09:56:51;101618.44;;;17.79;66.60
7297;BME280;40758;54.038;11.684;2022-07-10T09:59:27;101624.34;;;17.92;65.82
7297;BME280;40758;54.038;11.684;2022-07-10T10:02:18;101614.00;;;17.78;64.82
7297;BME280;40758;54.038;11.684;2022-07-10T10:04:54;101618.91;;;17.92;65.43
7297;BME280;40758;54.038;11.684;2022-07-10T10:07:24;101624.84;;;18.23;64.20
7297;BME280;40758;54.038;11.684;2022-07-10T10:09:57;101627.63;;;19.44;61.39
7297;BME280;40758;54.038;11.684;2022-07-10T10:12:44;101621.59;;;19.66;58.97
7297;BME280;40758;54.038;11.684;2022-07-10T10:15:17;101607.31;;;19.72;56.52
7297;BME280;40758;54.038;11.684;2022-07-10T10:17:48;101604.88;;;19.27;57.55
7297;BME280;40758;54.038;11.684;2022-07-10T10:20:21;101605.97;;;19.09;58.99
7297;BME280;40758;54.038;11.684;2022-07-10T10:23:06;101620.50;;;18.91;59.29
7297;BME280;40758;54.038;11.684;2022-07-10T10:25:39;101620.16;;;18.51;61.82
7297;BME280;40758;54.038;11.684;2022-07-10T10:28:13;101624.44;;;18.18;63.57
7297;BME280;40758;54.038;11.684;2022-07-10T10:30:46;101628.66;;;17.95;66.03
7297;BME280;40758;54.038;11.684;2022-07-10T10:33:44;101618.78;;;17.29;66.66
7297;BME280;40758;54.038;11.684;2022-07-10T10:36:44;101626.84;;;16.75;68.80
7297;BME280;40758;54.038;11.684;2022-07-10T10:39:18;101623.72;;;17.16;69.96
7297;BME280;40758;54.038;11.684;2022-07-10T10:41:54;101622.41;;;17.57;66.49
7297;BME280;40758;54.038;11.684;2022-07-10T10:44:31;101620.53;;;17.85;65.26
7297;BME280;40758;54.038;11.684;2022-07-10T10:47:05;101630.44;;;17.49;65.61
7297;BME280;40758;54.038;11.684;2022-07-10T10:49:55;101630.41;;;17.59;66.66
7297;BME280;40758;54.038;11.684;2022-07-10T10:52:29;101627.53;;;17.60;66.06
7297;BME280;40758;54.038;11.684;2022-07-10T10:55:07;101624.56;;;17.81;64.15
7297;BME280;40758;54.038;11.684;2022-07-10T10:57:41;101624.84;;;18.05;62.03
7297;BME280;40758;54.038;11.684;2022-07-10T11:00:34;101625.91;;;18.48;62.09
7297;BME280;40758;54.038;11.684;2022-07-10T11:03:29;101609.38;;;19.78;58.74
7297;BME280;40758;54.038;11.684;2022-07-10T11:06:14;101615.16;;;19.84;55.93
7297;BME280;40758;54.038;11.684;2022-07-10T11:08:43;101617.34;;;20.38;55.12
7297;BME280;40758;54.038;11.684;2022-07-10T11:11:39;101623.44;;;20.16;55.71
7297;BME280;40758;54.038;11.684;2022-07-10T11:14:09;101623.75;;;20.13;57.67
7297;BME280;40758;54.038;11.684;2022-07-10T11:16:47;101626.38;;;19.72;55.48
7297;BME280;40758;54.038;11.684;2022-07-10T11:19:23;101620.97;;;19.81;56.44
7297;BME280;40758;54.038;11.684;2022-07-10T11:22:13;101623.84;;;20.53;55.04
7297;BME280;40758;54.038;11.684;2022-07-10T11:25:02;101617.97;;;21.21;51.82
7297;BME280;40758;54.038;11.684;2022-07-10T11:28:04;101617.97;;;21.21;52.02
7297;BME280;40758;54.038;11.684;2022-07-10T11:30:54;101622.16;;;21.40;51.33
7297;BME280;40758;54.038;11.684;2022-07-10T11:33:25;101626.16;;;21.05;51.60
7297;BME280;40758;54.038;11.684;2022-07-10T11:35:55;101619.13;;;21.35;52.85
7297;BME280;40758;54.038;11.684;2022-07-10T11:38:26;101606.84;;;21.15;51.85
7297;BME280;40758;54.038;11.684;2022-07-10T11:40:55;101620.06;;;20.79;51.89
7297;BME280;40758;54.038;11.684;2022-07-10T11:43:24;101614.00;;;21.32;52.09
7297;BME280;40758;54.038;11.684;2022-07-10T11:45:53;101614.88;;;21.63;51.08
7297;BME280;40758;54.038;11.684;2022-07-10T11:48:39;101613.09;;;21.48;50.32
7297;BME280;40758;54.038;11.684;2022-07-10T11:51:22;101613.22;;;21.85;51.04
7297;BME280;40758;54.038;11.684;2022-07-10T11:53:59;101600.88;;;21.97;50.53
7297;BME280;40758;54.038;11.684;2022-07-10T11:56:35;101611.59;;;21.68;49.69
7297;BME280;40758;54.038;11.684;2022-07-10T11:59:08;101620.38;;;21.16;51.01
7297;BME280;40758;54.038;11.684;2022-07-10T12:01:43;101611.25;;;21.32;52.11
7297;BME280;40758;54.038;11.684;2022-07-10T12:04:17;101599.09;;;21.73;50.57
7297;BME280;40758;54.038;11.684;2022-07-10T12:06:48;101617.50;;;21.49;50.70
7297;BME280;40758;54.038;11.684;2022-07-10T12:09:22;101616.00;;;21.46;50.23
7297;BME280;40758;54.038;11.684;2022-07-10T12:12:05;101622.78;;;21.58;50.78
7297;BME280;40758;54.038;11.684;2022-07-10T12:14:38;101633.66;;;22.05;50.90
7297;BME280;40758;54.038;11.684;2022-07-10T12:17:13;101614.50;;;22.28;49.26
7297;BME280;40758;54.038;11.684;2022-07-10T12:19:49;101611.41;;;22.08;49.44
7297;BME280;40758;54.038;11.684;2022-07-10T12:22:23;101634.88;;;21.64;49.56
7297;BME280;40758;54.038;11.684;2022-07-10T12:24:55;101626.25;;;21.83;50.15
7297;BME280;40758;54.038;11.684;2022-07-10T12:27:41;101622.47;;;21.84;50.16
7297;BME280;40758;54.038;11.684;2022-07-10T12:30:11;101625.16;;;21.92;50.19
7297;BME280;40758;54.038;11.684;2022-07-10T12:32:40;101622.38;;;22.08;49.24
7297;BME280;40758;54.038;11.684;2022-07-10T12:35:13;101622.78;;;22.43;48.87
7297;BME280;40758;54.038;11.684;2022-07-10T12:37:49;101621.94;;;22.19;48.23
7297;BME280;40758;54.038;11.684;2022-07-10T12:40:30;101623.34;;;22.15;47.94
7297;BME280;40758;54.038;11.684;2022-07-10T12:43:03;101615.88;;;22.32;49.27
7297;BME280;40758;54.038;11.684;2022-07-10T12:45:34;101611.59;;;22.07;49.48
7297;BME280;40758;54.038;11.684;2022-07-10T12:48:20;101623.03;;;22.33;48.47
7297;BME280;40758;54.038;11.684;2022-07-10T12:50:51;101614.78;;;22.79;47.24
7297;BME280;40758;54.038;11.684;2022-07-10T12:53:21;101614.13;;;22.54;47.69
7297;BME280;40758;54.038;11.684;2022-07-10T12:55:51;101626.81;;;22.09;48.88
7297;BME280;40758;54.038;11.684;2022-07-10T12:58:25;101617.25;;;22.05;49.56
7297;BME280;40758;54.038;11.684;2022-07-10T13:00:55;101624.91;;;22.10;48.37
7297;BME280;40758;54.038;11.684;2022-07-10T13:03:26;101623.59;;;22.66;48.35
7297;BME280;40758;54.038;11.684;2022-07-10T13:05:59;101622.78;;;22.88;47.47
7297;BME280;40758;54.038;11.684;2022-07-10T13:08:45;101624.47;;;22.67;47.63
7297;BME280;40758;54.038;11.684;2022-07-10T13:11:14;101625.69;;;22.87;48.01
7297;BME280;40758;54.038;11.684;2022-07-10T13:13:43;101627.28;;;22.36;47.98
7297;BME280;40758;54.038;11.684;2022-07-10T13:16:13;101624.56;;;22.36;48.16